createdAt,value
2019-03-25T00:02:03.065Z,96.95
2019-03-25T00:07:09.041Z,96.97
2019-03-25T00:12:14.946Z,97.03
2019-03-25T00:17:20.860Z,96.66
2019-03-25T00:22:26.800Z,96.47
2019-03-25T00:27:32.764Z,96.01
2019-03-25T00:32:38.767Z,95.85
2019-03-25T00:37:44.676Z,95.61
2019-03-25T00:42:50.636Z,95.39
2019-03-25T00:53:35.440Z,95.65
2019-03-25T00:58:41.435Z,95.83
2019-03-25T01:03:47.374Z,95.85
2019-03-25T01:08:53.305Z,95.57
2019-03-25T01:13:59.225Z,95.65
2019-03-25T01:19:05.263Z,95.69
2019-03-25T01:24:11.266Z,95.52
2019-03-25T01:29:17.190Z,95.48
2019-03-25T01:34:23.145Z,95.34
2019-03-25T01:39:29.311Z,95.14
2019-03-25T01:44:35.295Z,95.16
2019-03-25T01:49:41.306Z,94.83
2019-03-25T01:54:47.651Z,94.75
2019-03-25T01:59:53.632Z,94.72
2019-03-25T02:04:59.627Z,94.99
2019-03-25T02:10:06.532Z,95.16
2019-03-25T02:15:12.939Z,94.92
2019-03-25T02:20:26.265Z,94.83
2019-03-25T02:25:26.462Z,95.26
2019-03-25T02:30:32.538Z,95.10
2019-03-25T02:35:38.566Z,95.06
2019-03-25T02:40:44.586Z,94.90
2019-03-25T02:45:50.573Z,94.71
2019-03-25T02:50:56.601Z,94.77
2019-03-25T02:56:03.087Z,94.89
2019-03-25T03:01:09.024Z,94.72
2019-03-25T03:06:15.126Z,94.66
2019-03-25T03:11:21.123Z,94.76
2019-03-25T03:16:27.126Z,94.19
2019-03-25T03:21:33.124Z,94.06
2019-03-25T03:26:39.099Z,94.39
2019-03-25T03:31:45.038Z,94.29
2019-03-25T03:36:51.025Z,94.26
2019-03-25T03:41:57.082Z,94.54
2019-03-25T03:47:03.176Z,94.49
2019-03-25T03:52:09.146Z,94.59
2019-03-25T03:57:15.631Z,94.74
2019-03-25T04:02:21.553Z,94.72
2019-03-25T04:07:27.596Z,94.69
2019-03-25T04:12:33.492Z,94.59
2019-03-25T04:17:39.419Z,94.44
2019-03-25T04:22:45.456Z,94.57
2019-03-25T04:27:51.424Z,94.47
2019-03-25T04:32:57.332Z,94.54
2019-03-25T04:38:03.230Z,94.58
2019-03-25T04:43:09.157Z,94.58
2019-03-25T04:48:15.060Z,94.52
2019-03-25T04:53:21.042Z,94.39
2019-03-25T04:58:27.095Z,94.29
2019-03-25T05:03:33.193Z,94.05
2019-03-25T05:08:39.257Z,93.89
2019-03-25T05:13:45.179Z,94.00
2019-03-25T05:18:51.051Z,93.68
2019-03-25T05:23:57.011Z,93.05
2019-03-25T05:29:03.036Z,92.51
2019-03-25T05:34:08.930Z,91.41
2019-03-25T05:39:14.835Z,90.88
2019-03-25T05:44:20.898Z,90.22
2019-03-25T05:49:26.910Z,89.62
2019-03-25T05:54:32.802Z,89.80
2019-03-25T05:59:38.787Z,89.13
2019-03-25T06:04:44.801Z,88.37
2019-03-25T06:09:50.760Z,88.16
2019-03-25T06:14:56.820Z,87.55
2019-03-25T06:20:02.800Z,86.88
2019-03-25T06:25:09.230Z,86.45
2019-03-25T06:30:15.500Z,85.71
2019-03-25T06:35:21.474Z,85.57
2019-03-25T06:40:27.484Z,85.78
2019-03-25T06:45:33.411Z,85.84
2019-03-25T06:50:39.391Z,86.22
2019-03-25T06:55:45.480Z,85.53
2019-03-25T07:00:51.561Z,85.23
2019-03-25T07:05:57.618Z,84.66
2019-03-25T07:11:03.987Z,84.79
2019-03-25T07:16:09.900Z,83.63
2019-03-25T07:21:15.926Z,82.55
2019-03-25T07:26:21.981Z,81.83
2019-03-25T07:31:27.976Z,81.86
2019-03-25T07:36:34.081Z,81.93
2019-03-25T07:41:40.091Z,80.03
2019-03-25T07:46:46.385Z,80.81
2019-03-25T07:51:55.581Z,81.42
2019-03-25T07:57:01.724Z,80.54
2019-03-25T08:02:08.077Z,80.45
2019-03-25T08:07:14.196Z,78.48
2019-03-25T08:12:20.603Z,77.35
2019-03-25T08:17:26.949Z,76.03
2019-03-25T08:22:32.902Z,76.52
2019-03-25T08:27:39.007Z,76.52
2019-03-25T08:32:45.345Z,78.14
2019-03-25T08:37:51.651Z,79.83
2019-03-25T08:42:57.656Z,79.80
2019-03-25T08:48:03.621Z,78.44
2019-03-25T08:53:09.780Z,79.38
2019-03-25T08:58:15.855Z,79.38
2019-03-25T09:03:22.137Z,79.45
2019-03-25T09:08:28.040Z,79.81
2019-03-25T09:13:34.225Z,77.84
2019-03-25T09:18:40.293Z,74.04
2019-03-25T09:23:46.277Z,71.05
2019-03-25T09:28:52.531Z,66.18
2019-03-25T09:33:58.587Z,60.54
2019-03-25T09:39:06.721Z,57.79
2019-03-25T09:44:12.688Z,55.66
2019-03-25T09:49:19.111Z,54.16
2019-03-25T09:54:25.089Z,52.14
2019-03-25T09:59:31.120Z,51.05
2019-03-25T10:04:37.533Z,50.30
2019-03-25T10:09:43.611Z,49.79
2019-03-25T10:14:50.215Z,46.85
2019-03-25T10:19:58.455Z,46.56
2019-03-25T10:25:04.635Z,47.92
2019-03-25T10:30:11.570Z,48.20
2019-03-25T10:35:17.576Z,49.78
2019-03-25T10:40:23.748Z,55.31
2019-03-25T10:45:29.705Z,55.74
2019-03-25T10:50:35.725Z,50.91
2019-03-25T10:55:41.798Z,50.99
2019-03-25T11:00:48.145Z,48.64
2019-03-25T11:05:54.323Z,49.45
2019-03-25T11:11:00.590Z,50.35
2019-03-25T11:16:06.681Z,50.73
2019-03-25T11:21:13.926Z,48.09
2019-03-25T11:26:20.357Z,47.73
2019-03-25T11:31:26.485Z,47.97
2019-03-25T11:36:32.885Z,44.20
2019-03-25T11:41:41.445Z,46.15
2019-03-25T11:46:47.537Z,45.08
2019-03-25T11:51:53.605Z,45.99
2019-03-25T11:56:59.650Z,44.55
2019-03-25T12:02:06.269Z,45.32
2019-03-25T12:07:12.385Z,44.87
2019-03-25T12:12:20.395Z,45.60
2019-03-25T12:17:27.299Z,44.63
2019-03-25T12:22:35.083Z,49.48
2019-03-25T12:27:41.171Z,51.96
2019-03-25T12:32:47.455Z,50.76
2019-03-25T12:37:53.573Z,51.13
2019-03-25T12:42:59.765Z,46.23
2019-03-25T12:48:07.437Z,46.98
2019-03-25T12:53:13.422Z,47.25
2019-03-25T12:58:22.082Z,46.10
2019-03-25T13:03:30.010Z,46.94
2019-03-25T13:08:36.209Z,45.61
2019-03-25T13:13:42.281Z,46.29
2019-03-25T13:18:48.645Z,47.16
2019-03-25T13:23:57.390Z,46.39
2019-03-25T13:29:03.418Z,44.29
2019-03-25T13:34:10.614Z,42.94
2019-03-25T13:39:18.916Z,45.90
2019-03-25T13:44:25.337Z,45.43
2019-03-25T13:49:33.110Z,45.40
2019-03-25T13:54:40.669Z,46.26
2019-03-25T13:59:46.985Z,48.73
2019-03-25T14:04:53.285Z,50.54
2019-03-25T14:09:59.427Z,47.73
2019-03-25T14:15:07.905Z,49.18
2019-03-25T14:20:14.100Z,48.30
2019-03-25T14:25:20.086Z,48.91
2019-03-25T14:30:26.120Z,48.51
2019-03-25T14:35:32.388Z,50.90
2019-03-25T14:40:38.621Z,53.54
2019-03-25T14:45:44.675Z,55.63
2019-03-25T14:50:50.859Z,54.70
2019-03-25T14:55:57.111Z,56.64
2019-03-25T15:01:03.370Z,56.29
2019-03-25T15:06:09.379Z,56.14
2019-03-25T15:11:15.346Z,57.51
2019-03-25T15:16:21.353Z,59.69
2019-03-25T15:21:28.161Z,58.13
2019-03-25T15:26:34.237Z,57.23
2019-03-25T15:31:45.801Z,60.25
2019-03-25T15:36:51.220Z,62.38
2019-03-25T15:41:59.213Z,63.88
2019-03-25T15:47:05.224Z,65.67
2019-03-25T15:52:13.538Z,62.94
2019-03-25T15:57:19.621Z,62.60
2019-03-25T16:02:25.953Z,62.39
2019-03-25T16:07:32.035Z,63.33
2019-03-25T16:12:38.110Z,62.71
2019-03-25T16:17:44.045Z,63.47
2019-03-25T16:22:49.940Z,65.75
2019-03-25T16:27:55.945Z,65.62
2019-03-25T16:33:02.024Z,67.30
2019-03-25T16:38:11.352Z,67.61
2019-03-25T16:43:17.698Z,69.47
2019-03-25T16:48:23.817Z,70.27
2019-03-25T16:53:29.744Z,70.68
2019-03-25T16:58:35.970Z,70.60
2019-03-25T17:03:42.509Z,70.54
2019-03-25T17:08:48.570Z,71.92
2019-03-25T17:13:54.825Z,72.42
2019-03-25T17:19:02.189Z,73.49
2019-03-25T17:24:08.371Z,74.09
2019-03-25T17:29:17.395Z,75.08
2019-03-25T17:34:23.399Z,75.44
2019-03-25T17:39:29.342Z,76.50
2019-03-25T17:44:35.300Z,76.50
2019-03-25T17:49:41.548Z,77.69
2019-03-25T17:54:47.925Z,78.19
2019-03-25T17:59:54.362Z,78.70
2019-03-25T18:05:00.322Z,79.11
2019-03-25T18:10:06.919Z,79.44
2019-03-25T18:15:13.435Z,80.32
2019-03-25T18:20:19.359Z,81.22
2019-03-25T18:25:25.950Z,81.70
2019-03-25T18:30:34.223Z,82.13
2019-03-25T18:35:40.331Z,82.44
2019-03-25T18:40:46.265Z,83.14
2019-03-25T18:45:52.349Z,83.36
2019-03-25T18:50:58.765Z,83.69
2019-03-25T18:56:06.395Z,84.17
2019-03-25T19:01:12.587Z,84.45
2019-03-25T19:06:18.688Z,84.78
2019-03-25T19:11:31.122Z,84.97
2019-03-25T19:16:32.764Z,84.74
2019-03-25T19:21:38.908Z,84.87
2019-03-25T19:26:44.810Z,85.08
2019-03-25T19:31:50.837Z,85.06
2019-03-25T19:36:56.833Z,85.39
2019-03-25T19:42:02.854Z,85.55
2019-03-25T19:47:08.865Z,85.62
2019-03-25T19:52:15.283Z,85.79
2019-03-25T19:57:21.213Z,85.91
2019-03-25T20:02:29.856Z,86.04
2019-03-25T20:07:35.938Z,86.38
2019-03-25T20:12:42.054Z,86.73
2019-03-25T20:17:48.309Z,86.84
2019-03-25T20:22:54.629Z,87.02
2019-03-25T20:28:00.799Z,87.17
2019-03-25T20:33:07.288Z,87.15
2019-03-25T20:38:13.713Z,87.24
2019-03-25T20:43:20.021Z,87.49
2019-03-25T20:48:28.807Z,87.75
2019-03-25T20:53:34.911Z,88.32
2019-03-25T20:58:41.055Z,87.97
2019-03-25T21:03:47.248Z,88.45
2019-03-25T21:08:53.474Z,88.72
2019-03-25T21:13:59.525Z,89.15
2019-03-25T21:19:05.874Z,89.23
2019-03-25T21:24:12.515Z,89.42
2019-03-25T21:29:18.568Z,89.64
2019-03-25T21:34:24.552Z,89.56
2019-03-25T21:39:31.158Z,89.97
2019-03-25T21:44:37.397Z,90.19
2019-03-25T21:49:43.644Z,90.22
2019-03-25T21:54:49.700Z,90.33
2019-03-25T21:59:55.890Z,90.61
2019-03-25T22:05:01.991Z,90.73
2019-03-25T22:10:08.569Z,90.74
2019-03-25T22:15:15.208Z,90.84
2019-03-25T22:20:21.208Z,90.58
2019-03-25T22:25:29.229Z,89.93
2019-03-25T22:30:35.346Z,89.97
2019-03-25T22:35:41.407Z,89.66
2019-03-25T22:40:47.488Z,90.14
2019-03-25T22:45:53.468Z,89.76
2019-03-25T22:50:59.508Z,90.02
2019-03-25T22:56:05.926Z,90.06
2019-03-25T23:01:12.289Z,89.40
2019-03-25T23:06:18.548Z,89.04
2019-03-25T23:11:24.618Z,88.96
2019-03-25T23:16:30.668Z,88.74
2019-03-25T23:21:36.814Z,89.07
2019-03-25T23:26:42.940Z,89.32
2019-03-25T23:31:48.948Z,89.57
2019-03-25T23:36:55.108Z,90.07
2019-03-25T23:42:01.294Z,90.30
2019-03-25T23:47:07.308Z,89.20
2019-03-25T23:52:13.548Z,89.09
2019-03-25T23:57:19.688Z,89.62
